createdAt,value
2019-02-10T00:00:36.066Z,-0.32
2019-02-10T00:03:06.378Z,-0.42
2019-02-10T00:05:37.025Z,-0.37
2019-02-10T00:08:07.626Z,-0.59
2019-02-10T00:10:38.391Z,-0.47
2019-02-10T00:13:32.014Z,-0.49
2019-02-10T00:16:04.519Z,-0.07
2019-02-10T00:18:35.219Z,0.08
2019-02-10T00:21:05.713Z,-0.23
2019-02-10T00:23:36.385Z,-0.47
2019-02-10T00:26:07.168Z,-0.45
2019-02-10T00:28:37.698Z,-0.24
2019-02-10T00:31:08.080Z,-0.13
2019-02-10T00:33:38.797Z,-0.24
2019-02-10T00:36:09.374Z,0.11
2019-02-10T00:38:39.698Z,-0.03
2019-02-10T00:41:10.142Z,-0.08
2019-02-10T00:43:40.461Z,-0.25
2019-02-10T00:46:11.131Z,-0.19
2019-02-10T00:48:41.808Z,-0.44
2019-02-10T00:51:12.088Z,-0.09
2019-02-10T00:53:42.628Z,-0.33
2019-02-10T00:56:13.313Z,-0.47
2019-02-10T00:58:43.772Z,-0.43
2019-02-10T01:01:14.377Z,-0.16
2019-02-10T01:03:45.057Z,-0.59
2019-02-10T01:06:15.327Z,-0.67
2019-02-10T01:08:45.911Z,-0.75
2019-02-10T01:11:16.291Z,-0.42
2019-02-10T01:13:46.610Z,-0.77
2019-02-10T01:16:17.004Z,-0.30
2019-02-10T01:19:08.300Z,-0.23
2019-02-10T01:21:40.098Z,-0.25
2019-02-10T01:24:10.438Z,-0.30
2019-02-10T01:26:41.177Z,-0.30
2019-02-10T01:29:11.813Z,-0.56
2019-02-10T01:31:42.108Z,-0.40
2019-02-10T01:34:12.919Z,-0.23
2019-02-10T01:36:49.520Z,-0.24
2019-02-10T01:39:19.146Z,-0.10
2019-02-10T01:41:49.507Z,-0.28
2019-02-10T01:44:20.429Z,-0.16
2019-02-10T01:46:50.730Z,-0.20
2019-02-10T01:49:21.616Z,-0.31
2019-02-10T01:51:51.986Z,-0.23
2019-02-10T01:54:22.779Z,-0.57
2019-02-10T01:56:53.370Z,-0.39
2019-02-10T01:59:25.617Z,-0.40
2019-02-10T02:01:56.336Z,-0.34
2019-02-10T02:04:27.076Z,-0.22
2019-02-10T02:06:58.127Z,-0.39
2019-02-10T02:09:28.511Z,-0.50
2019-02-10T02:11:58.909Z,-0.27
2019-02-10T02:14:29.300Z,-0.47
2019-02-10T02:16:59.619Z,-0.24
2019-02-10T02:19:30.187Z,-0.33
2019-02-10T02:22:00.882Z,-0.37
2019-02-10T02:24:31.493Z,-0.51
2019-02-10T02:27:02.024Z,-0.77
2019-02-10T02:29:32.444Z,-0.73
2019-02-10T02:32:02.965Z,-0.61
2019-02-10T02:34:33.235Z,-0.88
2019-02-10T02:37:07.949Z,-0.65
2019-02-10T02:39:35.632Z,-0.59
2019-02-10T02:42:05.942Z,-0.93
2019-02-10T02:44:36.251Z,-0.68
2019-02-10T02:47:06.423Z,-0.67
2019-02-10T02:49:36.839Z,-0.59
2019-02-10T02:52:07.607Z,-0.74
2019-02-10T02:54:38.012Z,-0.90
2019-02-10T02:57:08.333Z,-0.77
2019-02-10T02:59:39.021Z,-0.59
2019-02-10T03:02:09.341Z,-0.38
2019-02-10T03:04:39.719Z,-0.41
2019-02-10T03:07:17.687Z,-0.38
2019-02-10T03:09:42.422Z,-0.63
2019-02-10T03:12:12.751Z,-0.86
2019-02-10T03:14:43.390Z,-1.22
2019-02-10T03:17:14.065Z,-0.92
2019-02-10T03:19:44.340Z,-1.18
2019-02-10T03:22:15.036Z,-1.16
2019-02-10T03:24:45.353Z,-1.19
2019-02-10T03:27:15.951Z,-1.04
2019-02-10T03:29:46.454Z,-0.90
2019-02-10T03:32:16.782Z,-1.23
2019-02-10T03:34:47.427Z,-1.08
2019-02-10T03:37:26.643Z,-1.02
2019-02-10T03:39:49.816Z,-0.94
2019-02-10T03:42:20.589Z,-1.10
2019-02-10T03:44:51.388Z,-0.97
2019-02-10T03:47:22.270Z,-1.12
2019-02-10T03:49:52.764Z,-1.28
2019-02-10T03:52:23.394Z,-1.10
2019-02-10T03:54:53.798Z,-0.85
2019-02-10T03:57:24.541Z,-0.71
2019-02-10T03:59:54.867Z,-0.78
2019-02-10T04:02:25.643Z,-1.07
2019-02-10T04:04:56.092Z,-0.82
2019-02-10T04:07:26.356Z,-0.81
2019-02-10T04:09:56.754Z,-0.93
2019-02-10T04:12:27.530Z,-0.83
2019-02-10T04:14:57.853Z,-1.05
2019-02-10T04:17:28.159Z,-1.12
2019-02-10T04:19:58.858Z,-0.94
2019-02-10T04:22:29.122Z,-1.21
2019-02-10T04:24:59.446Z,-0.81
2019-02-10T04:27:30.096Z,-1.01
2019-02-10T04:30:00.654Z,-0.90
2019-02-10T04:32:31.292Z,-1.12
2019-02-10T04:35:01.630Z,-1.21
2019-02-10T04:37:31.904Z,-1.51
2019-02-10T04:40:02.273Z,-1.08
2019-02-10T04:42:32.605Z,-1.24
2019-02-10T04:45:02.915Z,-1.18
2019-02-10T04:47:33.516Z,-0.93
2019-02-10T04:50:04.298Z,-1.30
2019-02-10T04:52:34.688Z,-1.07
2019-02-10T04:55:05.523Z,-1.09
2019-02-10T04:57:36.180Z,-1.18
2019-02-10T05:00:07.617Z,-1.22
2019-02-10T05:02:38.115Z,-1.02
2019-02-10T05:05:08.557Z,-0.92
2019-02-10T05:07:39.221Z,-1.05
2019-02-10T05:10:09.581Z,-1.02
2019-02-10T05:12:39.933Z,-0.97
2019-02-10T05:15:10.669Z,-1.01
2019-02-10T05:17:41.312Z,-0.88
2019-02-10T05:20:11.678Z,-1.20
2019-02-10T05:22:42.268Z,-1.33
2019-02-10T05:25:13.014Z,-0.98
2019-02-10T05:27:43.287Z,-1.03
2019-02-10T05:30:13.712Z,-1.03
2019-02-10T05:32:44.373Z,-0.89
2019-02-10T05:35:14.736Z,-0.85
2019-02-10T05:37:45.045Z,-0.87
2019-02-10T05:40:15.701Z,-1.01
2019-02-10T05:42:46.132Z,-0.88
2019-02-10T05:45:16.506Z,-0.90
2019-02-10T05:47:47.031Z,-0.81
2019-02-10T05:50:17.544Z,-1.03
2019-02-10T05:52:47.840Z,-1.04
2019-02-10T05:55:18.508Z,-0.94
2019-02-10T05:57:49.323Z,-0.85
2019-02-10T06:00:19.698Z,-1.13
2019-02-10T06:02:50.133Z,-1.15
2019-02-10T06:05:22.781Z,-0.78
2019-02-10T06:07:53.592Z,-0.73
2019-02-10T06:10:24.175Z,-0.79
2019-02-10T06:12:54.497Z,-0.54
2019-02-10T06:15:25.381Z,-0.63
2019-02-10T06:17:56.115Z,-0.33
2019-02-10T06:20:26.424Z,-0.43
2019-02-10T06:22:57.059Z,-0.34
2019-02-10T06:25:27.715Z,-0.20
2019-02-10T06:27:58.002Z,-0.09
2019-02-10T06:30:28.560Z,0.22
2019-02-10T06:33:00.113Z,0.25
2019-02-10T06:35:30.424Z,0.38
2019-02-10T06:38:00.953Z,0.35
2019-02-10T06:40:31.395Z,0.53
2019-02-10T06:43:02.277Z,0.84
2019-02-10T06:45:32.853Z,0.73
2019-02-10T06:48:03.239Z,0.88
2019-02-10T06:50:33.794Z,0.90
2019-02-10T06:53:04.546Z,0.96
2019-02-10T06:55:34.933Z,1.27
2019-02-10T06:58:05.479Z,1.33
2019-02-10T07:01:00.988Z,1.39
2019-02-10T07:03:52.427Z,1.64
2019-02-10T07:06:24.925Z,1.74
2019-02-10T07:08:55.401Z,1.79
2019-02-10T07:11:26.160Z,2.04
2019-02-10T07:13:59.103Z,2.35
2019-02-10T07:16:50.177Z,2.20
2019-02-10T07:20:12.777Z,2.29
2019-02-10T07:23:21.393Z,2.56
2019-02-10T07:25:53.815Z,2.50
2019-02-10T07:29:09.478Z,2.58
2019-02-10T07:32:07.880Z,2.64
2019-02-10T07:35:19.949Z,2.86
2019-02-10T07:38:20.858Z,2.93
2019-02-10T07:41:07.899Z,3.03
2019-02-10T07:44:46.480Z,3.11
2019-02-10T07:47:51.788Z,3.33
2019-02-10T07:50:44.816Z,3.50
2019-02-10T07:53:41.398Z,3.62
2019-02-10T07:56:58.050Z,3.77
2019-02-10T07:59:44.531Z,4.06
2019-02-10T08:03:06.440Z,4.03
2019-02-10T08:05:59.850Z,4.12
2019-02-10T08:09:16.341Z,4.11
2019-02-10T08:11:57.839Z,4.29
2019-02-10T08:15:24.478Z,4.31
2019-02-10T08:18:23.231Z,4.47
2019-02-10T08:21:34.501Z,4.63
2019-02-10T08:24:37.287Z,4.80
2019-02-10T08:27:25.880Z,4.79
2019-02-10T08:30:35.670Z,5.04
2019-02-10T08:33:44.755Z,5.04
2019-02-10T08:36:50.999Z,5.06
2019-02-10T08:40:02.967Z,5.26
2019-02-10T08:43:35.618Z,5.31
2019-02-10T08:46:24.711Z,5.76
2019-02-10T08:49:20.313Z,5.60
2019-02-10T08:52:15.245Z,5.83
2019-02-10T08:54:45.633Z,6.15
2019-02-10T08:57:16.103Z,6.48
2019-02-10T08:59:46.696Z,6.45
2019-02-10T09:02:17.203Z,6.24
2019-02-10T09:04:47.877Z,6.62
2019-02-10T09:07:18.384Z,6.72
2019-02-10T09:09:48.825Z,6.73
2019-02-10T09:12:19.494Z,6.80
2019-02-10T09:14:49.803Z,7.15
2019-02-10T09:17:20.509Z,7.15
2019-02-10T09:19:51.148Z,7.35
2019-02-10T09:22:21.455Z,7.43
2019-02-10T09:24:52.275Z,7.63
2019-02-10T09:27:23.022Z,7.78
2019-02-10T09:29:53.285Z,8.15
2019-02-10T09:32:23.979Z,8.51
2019-02-10T09:34:54.619Z,9.01
2019-02-10T09:37:25.316Z,9.41
2019-02-10T09:39:56.021Z,9.80
2019-02-10T09:42:26.615Z,10.32
2019-02-10T09:44:56.928Z,10.79
2019-02-10T09:47:27.644Z,11.44
2019-02-10T09:49:57.936Z,11.87
2019-02-10T09:52:28.265Z,12.52
2019-02-10T09:54:58.787Z,13.16
2019-02-10T09:57:29.441Z,13.46
2019-02-10T10:00:00.025Z,13.31
2019-02-10T10:02:30.810Z,14.05
2019-02-10T10:05:01.409Z,14.68
2019-02-10T10:07:31.829Z,14.72
2019-02-10T10:10:02.571Z,14.98
2019-02-10T10:12:33.342Z,15.23
2019-02-10T10:15:03.732Z,14.84
2019-02-10T10:17:34.187Z,14.83
2019-02-10T10:20:05.322Z,14.91
2019-02-10T10:22:35.810Z,15.25
2019-02-10T10:25:07.331Z,13.67
2019-02-10T10:27:37.760Z,14.17
2019-02-10T10:30:10.521Z,13.82
2019-02-10T10:32:40.945Z,13.84
2019-02-10T10:35:11.754Z,12.23
2019-02-10T10:37:42.266Z,12.48
2019-02-10T10:40:13.329Z,12.43
2019-02-10T10:42:43.634Z,12.07
2019-02-10T10:45:13.961Z,12.24
2019-02-10T10:47:44.808Z,11.97
2019-02-10T10:50:15.438Z,11.97
2019-02-10T10:52:46.041Z,11.94
2019-02-10T10:55:16.518Z,11.37
2019-02-10T10:57:46.870Z,12.19
2019-02-10T11:00:17.268Z,11.55
2019-02-10T11:02:48.287Z,12.04
2019-02-10T11:05:18.939Z,11.98
2019-02-10T11:07:49.241Z,12.16
2019-02-10T11:10:19.795Z,11.92
2019-02-10T11:12:51.068Z,11.68
2019-02-10T11:15:21.775Z,11.71
2019-02-10T11:17:52.315Z,11.90
2019-02-10T11:20:22.714Z,12.10
2019-02-10T11:22:53.515Z,12.05
2019-02-10T11:25:24.204Z,12.48
2019-02-10T11:27:54.510Z,12.54
2019-02-10T11:30:25.196Z,12.95
2019-02-10T11:32:56.168Z,12.45
2019-02-10T11:35:26.452Z,12.77
2019-02-10T11:37:56.926Z,12.92
2019-02-10T11:40:27.595Z,12.59
2019-02-10T11:42:57.904Z,12.57
2019-02-10T11:45:28.578Z,12.65
2019-02-10T11:47:58.887Z,12.80
2019-02-10T11:50:29.490Z,12.86
2019-02-10T11:52:59.910Z,12.92
2019-02-10T11:55:30.274Z,12.82
2019-02-10T11:58:01.752Z,13.00
2019-02-10T12:00:32.556Z,12.84
2019-02-10T12:03:02.896Z,12.69
2019-02-10T12:05:33.187Z,12.88
2019-02-10T12:08:03.873Z,12.67
2019-02-10T12:10:34.130Z,12.63
2019-02-10T12:13:04.588Z,12.35
2019-02-10T12:15:35.289Z,12.77
2019-02-10T12:18:05.930Z,13.08
2019-02-10T12:20:36.472Z,13.18
2019-02-10T12:23:06.855Z,13.33
2019-02-10T12:25:37.153Z,13.43
2019-02-10T12:28:07.754Z,13.89
2019-02-10T12:30:38.029Z,13.65
2019-02-10T12:33:08.469Z,13.32
2019-02-10T12:35:39.160Z,13.68
2019-02-10T12:38:09.652Z,13.31
2019-02-10T12:40:39.937Z,13.61
2019-02-10T12:43:10.666Z,13.60
2019-02-10T12:45:41.360Z,13.87
2019-02-10T12:48:11.689Z,13.27
2019-02-10T12:50:42.221Z,13.40
2019-02-10T12:53:12.530Z,13.20
2019-02-10T12:55:42.934Z,13.28
2019-02-10T12:58:13.278Z,14.16
2019-02-10T13:00:43.605Z,14.26
2019-02-10T13:03:14.153Z,14.26
2019-02-10T13:05:44.612Z,15.05
2019-02-10T13:08:14.884Z,14.77
2019-02-10T13:10:45.633Z,14.90
2019-02-10T13:13:19.298Z,14.99
2019-02-10T13:15:48.422Z,15.08
2019-02-10T13:18:19.010Z,15.22
2019-02-10T13:20:49.393Z,15.13
2019-02-10T13:23:20.063Z,15.55
2019-02-10T13:25:50.689Z,15.90
2019-02-10T13:28:20.997Z,16.41
2019-02-10T13:30:51.725Z,15.72
2019-02-10T13:33:23.665Z,15.48
2019-02-10T13:35:53.974Z,16.03
2019-02-10T13:38:24.467Z,16.69
2019-02-10T13:40:55.127Z,16.27
2019-02-10T13:43:33.217Z,16.67
2019-02-10T13:45:57.535Z,16.76
2019-02-10T13:48:28.267Z,16.54
2019-02-10T13:50:58.591Z,16.72
2019-02-10T13:53:29.293Z,16.37
2019-02-10T13:55:59.565Z,17.14
2019-02-10T13:58:30.180Z,16.84
2019-02-10T14:01:00.846Z,16.83
2019-02-10T14:03:31.169Z,16.01
2019-02-10T14:06:01.478Z,16.58
2019-02-10T14:08:32.494Z,16.27
2019-02-10T14:11:02.780Z,16.21
2019-02-10T14:13:33.483Z,16.12
2019-02-10T14:16:04.137Z,16.06
2019-02-10T14:18:34.505Z,15.78
2019-02-10T14:21:04.799Z,15.84
2019-02-10T14:23:35.236Z,15.96
2019-02-10T14:26:06.843Z,16.07
2019-02-10T14:28:37.367Z,15.89
2019-02-10T14:31:08.139Z,15.74
2019-02-10T14:33:39.246Z,16.07
2019-02-10T14:36:09.639Z,15.94
2019-02-10T14:38:40.214Z,16.31
2019-02-10T14:41:10.764Z,15.84
2019-02-10T14:43:41.210Z,15.96
2019-02-10T14:46:11.515Z,15.57
2019-02-10T14:48:42.287Z,16.47
2019-02-10T14:51:12.585Z,16.48
2019-02-10T14:53:42.972Z,16.06
2019-02-10T14:56:13.651Z,16.06
2019-02-10T14:58:44.170Z,16.02
2019-02-10T15:01:14.798Z,15.95
2019-02-10T15:03:45.442Z,15.90
2019-02-10T15:06:18.652Z,15.77
2019-02-10T15:08:49.087Z,16.21
2019-02-10T15:11:19.466Z,16.07
2019-02-10T15:13:49.804Z,16.19
2019-02-10T15:16:20.324Z,15.32
2019-02-10T15:18:51.818Z,15.10
2019-02-10T15:21:22.112Z,14.40
2019-02-10T15:23:52.780Z,13.73
2019-02-10T15:26:23.375Z,13.52
2019-02-10T15:28:53.838Z,13.25
2019-02-10T15:31:24.183Z,13.00
2019-02-10T15:33:54.684Z,12.97
2019-02-10T15:36:25.520Z,13.10
2019-02-10T15:38:56.207Z,12.87
2019-02-10T15:41:26.534Z,12.81
2019-02-10T15:43:57.273Z,11.75
2019-02-10T15:46:27.734Z,11.65
2019-02-10T15:48:58.286Z,11.38
2019-02-10T15:51:36.973Z,10.78
2019-02-10T15:54:01.500Z,10.31
2019-02-10T15:56:31.948Z,10.15
2019-02-10T15:59:02.479Z,10.12
2019-02-10T16:01:32.864Z,10.11
2019-02-10T16:04:03.742Z,9.61
2019-02-10T16:06:34.507Z,9.72
2019-02-10T16:09:05.662Z,8.96
2019-02-10T16:11:36.504Z,8.66
2019-02-10T16:14:07.086Z,8.43
2019-02-10T16:16:37.372Z,8.33
2019-02-10T16:19:07.762Z,8.42
2019-02-10T16:21:38.711Z,8.19
2019-02-10T16:24:09.168Z,7.99
2019-02-10T16:26:39.453Z,7.86
2019-02-10T16:29:10.168Z,7.74
2019-02-10T16:31:40.467Z,7.65
2019-02-10T16:34:11.508Z,7.57
2019-02-10T16:36:41.881Z,7.60
2019-02-10T16:39:13.005Z,7.40
2019-02-10T16:41:45.845Z,7.38
2019-02-10T16:44:16.124Z,7.41
2019-02-10T16:46:46.451Z,7.18
2019-02-10T16:49:17.325Z,7.06
2019-02-10T16:51:47.815Z,6.98
2019-02-10T16:54:18.259Z,7.00
2019-02-10T16:56:48.640Z,6.89
2019-02-10T16:59:19.222Z,6.81
2019-02-10T17:01:49.555Z,6.78
2019-02-10T17:04:20.238Z,6.84
2019-02-10T17:06:50.571Z,6.80
2019-02-10T17:09:21.214Z,6.70
2019-02-10T17:11:51.527Z,6.67
2019-02-10T17:14:21.852Z,6.82
2019-02-10T17:16:52.292Z,6.68
2019-02-10T17:19:22.939Z,6.63
2019-02-10T17:21:53.202Z,6.68
2019-02-10T17:24:23.979Z,6.76
2019-02-10T17:26:54.790Z,6.72
2019-02-10T17:29:25.088Z,6.56
2019-02-10T17:31:55.745Z,6.47
2019-02-10T17:34:26.377Z,6.46
2019-02-10T17:36:56.662Z,6.48
2019-02-10T17:39:27.103Z,6.54
2019-02-10T17:41:57.487Z,6.56
2019-02-10T17:44:28.104Z,6.55
2019-02-10T17:46:58.488Z,6.57
2019-02-10T17:49:29.001Z,6.53
2019-02-10T17:51:59.442Z,6.39
2019-02-10T17:54:30.223Z,6.24
2019-02-10T17:57:00.533Z,6.29
2019-02-10T17:59:32.241Z,6.29
2019-02-10T18:02:02.793Z,6.36
2019-02-10T18:04:37.520Z,6.55
2019-02-10T18:07:05.181Z,6.40
2019-02-10T18:09:35.978Z,6.28
2019-02-10T18:12:06.412Z,6.26
2019-02-10T18:14:54.392Z,6.48
2019-02-10T18:17:36.112Z,6.47
2019-02-10T18:20:25.788Z,6.46
2019-02-10T18:23:18.503Z,6.45
2019-02-10T18:25:56.001Z,7.16
2019-02-10T18:28:44.193Z,7.22
2019-02-10T18:31:34.111Z,6.77
2019-02-10T18:34:23.354Z,7.14
2019-02-10T18:37:15.724Z,7.28
2019-02-10T18:40:05.306Z,7.25
2019-02-10T18:42:51.720Z,7.53
2019-02-10T18:45:41.057Z,7.47
2019-02-10T18:48:28.034Z,7.33
2019-02-10T18:51:07.178Z,7.20
2019-02-10T18:53:51.986Z,7.11
2019-02-10T18:56:50.043Z,6.79
2019-02-10T18:59:39.603Z,6.51
2019-02-10T19:02:27.935Z,6.80
2019-02-10T19:05:06.520Z,6.97
2019-02-10T19:07:59.116Z,6.54
2019-02-10T19:11:03.377Z,6.42
2019-02-10T19:13:48.188Z,6.87
2019-02-10T19:16:32.789Z,7.17
2019-02-10T19:19:20.385Z,6.76
2019-02-10T19:21:59.412Z,6.85
2019-02-10T19:24:51.805Z,6.85
2019-02-10T19:27:43.718Z,7.21
2019-02-10T19:30:31.929Z,7.20
2019-02-10T19:33:13.847Z,6.70
2019-02-10T19:35:57.831Z,6.45
2019-02-10T19:38:44.881Z,6.36
2019-02-10T19:41:34.134Z,6.73
2019-02-10T19:44:16.067Z,7.06
2019-02-10T19:47:01.983Z,6.34
2019-02-10T19:49:54.177Z,5.86
2019-02-10T19:53:01.600Z,6.50
2019-02-10T19:55:56.943Z,6.69
2019-02-10T19:58:38.450Z,6.49
2019-02-10T20:01:18.348Z,6.53
2019-02-10T20:03:59.978Z,6.72
2019-02-10T20:06:36.184Z,6.69
2019-02-10T20:09:25.802Z,5.77
2019-02-10T20:12:24.113Z,5.69
2019-02-10T20:15:16.000Z,6.10
2019-02-10T20:18:05.518Z,6.55
2019-02-10T20:21:01.478Z,6.28
2019-02-10T20:23:50.722Z,6.39
2019-02-10T20:26:40.563Z,6.42
2019-02-10T20:29:25.922Z,6.55
2019-02-10T20:32:27.430Z,6.63
2019-02-10T20:35:19.993Z,6.43
2019-02-10T20:38:08.174Z,6.46
2019-02-10T20:40:57.879Z,6.34
2019-02-10T20:43:57.544Z,5.93
2019-02-10T20:46:50.682Z,6.23
2019-02-10T20:49:43.138Z,6.47
2019-02-10T20:52:21.111Z,6.15
2019-02-10T20:55:19.255Z,5.98
2019-02-10T20:58:07.514Z,6.24
2019-02-10T21:01:06.260Z,5.95
2019-02-10T21:03:50.373Z,5.84
2019-02-10T21:06:48.946Z,5.89
2019-02-10T21:09:44.410Z,5.50
2019-02-10T21:12:37.041Z,5.22
2019-02-10T21:15:30.041Z,5.14
2019-02-10T21:18:18.286Z,4.92
2019-02-10T21:20:55.282Z,4.88
2019-02-10T21:23:47.991Z,5.05
2019-02-10T21:26:43.260Z,4.67
2019-02-10T21:29:31.499Z,4.89
2019-02-10T21:32:10.817Z,5.18
2019-02-10T21:34:55.086Z,4.81
2019-02-10T21:37:47.296Z,4.55
2019-02-10T21:40:42.839Z,4.59
2019-02-10T21:43:35.560Z,4.77
2019-02-10T21:46:28.400Z,4.15
2019-02-10T21:49:05.291Z,4.29
2019-02-10T21:51:36.932Z,4.94
2019-02-10T21:54:07.442Z,4.51
2019-02-10T21:56:37.940Z,3.96
2019-02-10T21:59:08.505Z,4.42
2019-02-10T22:01:39.151Z,4.57
2019-02-10T22:04:09.470Z,4.60
2019-02-10T22:06:39.818Z,4.58
2019-02-10T22:09:10.382Z,3.79
2019-02-10T22:11:41.279Z,3.98
2019-02-10T22:14:11.569Z,4.25
2019-02-10T22:16:42.231Z,3.74
2019-02-10T22:19:12.549Z,3.49
2019-02-10T22:21:43.286Z,3.97
2019-02-10T22:24:13.782Z,3.71
2019-02-10T22:26:44.109Z,3.69
2019-02-10T22:29:15.879Z,3.58
2019-02-10T22:31:46.423Z,3.38
2019-02-10T22:34:16.692Z,3.48
2019-02-10T22:36:47.093Z,3.17
2019-02-10T22:39:17.719Z,3.53
2019-02-10T22:41:47.989Z,3.54
2019-02-10T22:44:18.566Z,3.92
2019-02-10T22:46:49.070Z,3.99
2019-02-10T22:49:19.589Z,4.16
2019-02-10T22:51:50.129Z,3.69
2019-02-10T22:54:20.573Z,3.22
2019-02-10T22:56:51.283Z,3.26
2019-02-10T22:59:21.971Z,3.19
2019-02-10T23:01:52.295Z,3.61
2019-02-10T23:04:22.715Z,3.34
2019-02-10T23:06:53.320Z,3.56
2019-02-10T23:09:24.522Z,3.67
2019-02-10T23:11:54.839Z,3.12
2019-02-10T23:14:25.581Z,2.73
2019-02-10T23:16:55.881Z,2.55
2019-02-10T23:19:26.240Z,2.72
2019-02-10T23:21:56.911Z,2.98
2019-02-10T23:24:27.511Z,3.11
2019-02-10T23:26:57.906Z,2.83
2019-02-10T23:29:29.766Z,3.12
2019-02-10T23:32:00.255Z,0.77
2019-02-10T23:34:30.595Z,2.54
2019-02-10T23:37:01.027Z,2.62
2019-02-10T23:39:31.862Z,2.57
2019-02-10T23:42:02.197Z,2.42
2019-02-10T23:44:32.646Z,2.39
2019-02-10T23:47:03.422Z,2.67
2019-02-10T23:49:33.944Z,2.56
2019-02-10T23:52:04.283Z,2.67
2019-02-10T23:54:34.843Z,2.84
2019-02-10T23:57:05.554Z,2.91
2019-02-10T23:59:36.178Z,3.06
